sensor_id;sensor_type;location;lat;lon;timestamp;P1;durP1;ratioP1;P2;durP2;ratioP2
52306;SDS011;38249;48.920;12.882;2022-11-25T00:01:03;10.73;;;6.63;;
52306;SDS011;38249;48.920;12.882;2022-11-25T00:03:31;7.75;;;4.38;;
52306;SDS011;38249;48.920;12.882;2022-11-25T00:06:06;5.85;;;4.10;;
52306;SDS011;38249;48.920;12.882;2022-11-25T00:08:33;7.30;;;3.38;;
52306;SDS011;38249;48.920;12.882;2022-11-25T00:10:59;4.63;;;3.15;;
52306;SDS011;38249;48.920;12.882;2022-11-25T00:13:28;7.07;;;3.55;;
52306;SDS011;38249;48.920;12.882;2022-11-25T00:15:54;8.52;;;3.60;;
52306;SDS011;38249;48.920;12.882;2022-11-25T00:18:21;5.75;;;3.63;;
52306;SDS011;38249;48.920;12.882;2022-11-25T00:20:47;7.45;;;4.15;;
52306;SDS011;38249;48.920;12.882;2022-11-25T00:23:14;6.53;;;3.25;;
52306;SDS011;38249;48.920;12.882;2022-11-25T00:25:40;5.72;;;3.10;;
52306;SDS011;38249;48.920;12.882;2022-11-25T00:28:07;7.50;;;4.35;;
52306;SDS011;38249;48.920;12.882;2022-11-25T00:30:35;6.10;;;3.47;;
52306;SDS011;38249;48.920;12.882;2022-11-25T00:33:01;6.78;;;4.57;;
52306;SDS011;38249;48.920;12.882;2022-11-25T00:35:28;7.65;;;5.38;;
52306;SDS011;38249;48.920;12.882;2022-11-25T00:37:54;7.63;;;4.68;;
52306;SDS011;38249;48.920;12.882;2022-11-25T00:40:21;5.75;;;3.63;;
52306;SDS011;38249;48.920;12.882;2022-11-25T00:42:47;5.75;;;3.20;;
52306;SDS011;38249;48.920;12.882;2022-11-25T00:45:32;5.18;;;3.20;;
52306;SDS011;38249;48.920;12.882;2022-11-25T00:48:00;7.15;;;3.63;;
52306;SDS011;38249;48.920;12.882;2022-11-25T00:50:26;4.93;;;2.63;;
52306;SDS011;38249;48.920;12.882;2022-11-25T00:52:53;4.03;;;2.55;;
52306;SDS011;38249;48.920;12.882;2022-11-25T00:55:19;7.28;;;2.92;;
52306;SDS011;38249;48.920;12.882;2022-11-25T00:57:46;6.40;;;2.75;;
52306;SDS011;38249;48.920;12.882;2022-11-25T01:00:13;5.40;;;2.78;;
52306;SDS011;38249;48.920;12.882;2022-11-25T01:02:39;5.80;;;3.28;;
52306;SDS011;38249;48.920;12.882;2022-11-25T01:05:08;6.00;;;3.33;;
52306;SDS011;38249;48.920;12.882;2022-11-25T01:07:34;5.80;;;2.72;;
52306;SDS011;38249;48.920;12.882;2022-11-25T01:10:01;6.57;;;3.08;;
52306;SDS011;38249;48.920;12.882;2022-11-25T01:12:28;9.25;;;3.92;;
52306;SDS011;38249;48.920;12.882;2022-11-25T01:14:54;6.68;;;3.08;;
52306;SDS011;38249;48.920;12.882;2022-11-25T01:17:21;3.90;;;2.70;;
52306;SDS011;38249;48.920;12.882;2022-11-25T01:19:47;4.50;;;2.60;;
52306;SDS011;38249;48.920;12.882;2022-11-25T01:22:15;7.38;;;3.00;;
52306;SDS011;38249;48.920;12.882;2022-11-25T01:24:42;6.25;;;3.17;;
52306;SDS011;38249;48.920;12.882;2022-11-25T01:27:08;8.65;;;3.45;;
52306;SDS011;38249;48.920;12.882;2022-11-25T01:29:35;5.50;;;2.25;;
52306;SDS011;38249;48.920;12.882;2022-11-25T01:32:01;7.70;;;2.85;;
52306;SDS011;38249;48.920;12.882;2022-11-25T01:34:28;5.40;;;2.67;;
52306;SDS011;38249;48.920;12.882;2022-11-25T01:36:56;7.07;;;2.22;;
52306;SDS011;38249;48.920;12.882;2022-11-25T01:39:24;3.78;;;2.28;;
52306;SDS011;38249;48.920;12.882;2022-11-25T01:41:51;4.70;;;2.08;;
52306;SDS011;38249;48.920;12.882;2022-11-25T01:44:18;4.57;;;2.97;;
52306;SDS011;38249;48.920;12.882;2022-11-25T01:46:48;5.53;;;3.00;;
52306;SDS011;38249;48.920;12.882;2022-11-25T01:49:25;4.20;;;2.83;;
52306;SDS011;38249;48.920;12.882;2022-11-25T01:51:56;4.47;;;2.90;;
52306;SDS011;38249;48.920;12.882;2022-11-25T01:54:28;4.40;;;2.28;;
52306;SDS011;38249;48.920;12.882;2022-11-25T01:56:59;4.32;;;2.40;;
52306;SDS011;38249;48.920;12.882;2022-11-25T01:59:28;3.80;;;2.30;;
52306;SDS011;38249;48.920;12.882;2022-11-25T02:01:57;4.95;;;2.50;;
52306;SDS011;38249;48.920;12.882;2022-11-25T02:04:26;5.03;;;2.60;;
52306;SDS011;38249;48.920;12.882;2022-11-25T02:06:58;5.57;;;3.08;;
52306;SDS011;38249;48.920;12.882;2022-11-25T02:09:30;5.70;;;2.90;;
52306;SDS011;38249;48.920;12.882;2022-11-25T02:11:57;5.90;;;3.67;;
52306;SDS011;38249;48.920;12.882;2022-11-25T02:14:23;5.70;;;3.67;;
52306;SDS011;38249;48.920;12.882;2022-11-25T02:20:13;7.65;;;4.50;;
52306;SDS011;38249;48.920;12.882;2022-11-25T02:22:45;13.88;;;7.72;;
52306;SDS011;38249;48.920;12.882;2022-11-25T02:25:20;10.20;;;6.38;;
52306;SDS011;38249;48.920;12.882;2022-11-25T02:27:50;8.65;;;5.60;;
52306;SDS011;38249;48.920;12.882;2022-11-25T02:30:20;10.60;;;6.78;;
52306;SDS011;38249;48.920;12.882;2022-11-25T02:32:47;12.00;;;6.22;;
52306;SDS011;38249;48.920;12.882;2022-11-25T02:35:24;7.53;;;5.75;;
52306;SDS011;38249;48.920;12.882;2022-11-25T02:37:54;7.95;;;5.38;;
52306;SDS011;38249;48.920;12.882;2022-11-25T02:40:26;9.70;;;6.47;;
52306;SDS011;38249;48.920;12.882;2022-11-25T02:42:53;9.60;;;6.30;;
52306;SDS011;38249;48.920;12.882;2022-11-25T02:45:25;10.00;;;6.25;;
52306;SDS011;38249;48.920;12.882;2022-11-25T02:48:00;11.07;;;7.57;;
52306;SDS011;38249;48.920;12.882;2022-11-25T02:50:26;12.68;;;7.18;;
52306;SDS011;38249;48.920;12.882;2022-11-25T02:52:53;14.05;;;8.63;;
52306;SDS011;38249;48.920;12.882;2022-11-25T02:55:19;15.95;;;8.55;;
52306;SDS011;38249;48.920;12.882;2022-11-25T02:57:47;13.63;;;7.47;;
52306;SDS011;38249;48.920;12.882;2022-11-25T03:00:14;14.38;;;8.32;;
52306;SDS011;38249;48.920;12.882;2022-11-25T03:02:42;19.48;;;10.18;;
52306;SDS011;38249;48.920;12.882;2022-11-25T03:05:08;15.13;;;10.70;;
52306;SDS011;38249;48.920;12.882;2022-11-25T03:07:35;15.10;;;9.20;;
52306;SDS011;38249;48.920;12.882;2022-11-25T03:10:02;14.20;;;9.20;;
52306;SDS011;38249;48.920;12.882;2022-11-25T03:12:28;15.65;;;8.85;;
52306;SDS011;38249;48.920;12.882;2022-11-25T03:14:57;15.02;;;9.63;;
52306;SDS011;38249;48.920;12.882;2022-11-25T03:17:23;16.40;;;8.90;;
52306;SDS011;38249;48.920;12.882;2022-11-25T03:19:50;16.30;;;10.65;;
52306;SDS011;38249;48.920;12.882;2022-11-25T03:22:16;24.80;;;16.48;;
52306;SDS011;38249;48.920;12.882;2022-11-25T03:24:43;18.70;;;12.48;;
52306;SDS011;38249;48.920;12.882;2022-11-25T03:27:09;22.13;;;14.55;;
52306;SDS011;38249;48.920;12.882;2022-11-25T03:29:36;14.15;;;9.48;;
52306;SDS011;38249;48.920;12.882;2022-11-25T03:32:04;16.33;;;10.07;;
52306;SDS011;38249;48.920;12.882;2022-11-25T03:34:31;16.45;;;9.77;;
52306;SDS011;38249;48.920;12.882;2022-11-25T03:36:57;17.42;;;9.93;;
52306;SDS011;38249;48.920;12.882;2022-11-25T03:39:24;17.60;;;9.30;;
52306;SDS011;38249;48.920;12.882;2022-11-25T03:41:51;14.43;;;9.70;;
52306;SDS011;38249;48.920;12.882;2022-11-25T03:44:17;14.23;;;8.77;;
52306;SDS011;38249;48.920;12.882;2022-11-25T03:46:44;17.25;;;10.25;;
52306;SDS011;38249;48.920;12.882;2022-11-25T03:49:11;14.90;;;9.27;;
52306;SDS011;38249;48.920;12.882;2022-11-25T03:51:38;14.60;;;9.30;;
52306;SDS011;38249;48.920;12.882;2022-11-25T03:54:05;17.05;;;9.77;;
52306;SDS011;38249;48.920;12.882;2022-11-25T03:56:31;13.70;;;9.15;;
52306;SDS011;38249;48.920;12.882;2022-11-25T03:58:58;15.13;;;8.48;;
52306;SDS011;38249;48.920;12.882;2022-11-25T04:01:25;12.70;;;7.82;;
52306;SDS011;38249;48.920;12.882;2022-11-25T04:03:51;11.65;;;8.07;;
52306;SDS011;38249;48.920;12.882;2022-11-25T04:06:19;15.43;;;8.07;;
52306;SDS011;38249;48.920;12.882;2022-11-25T04:08:47;10.55;;;7.60;;
52306;SDS011;38249;48.920;12.882;2022-11-25T04:11:14;12.05;;;7.75;;
52306;SDS011;38249;48.920;12.882;2022-11-25T04:13:41;12.75;;;6.47;;
52306;SDS011;38249;48.920;12.882;2022-11-25T04:16:12;10.70;;;6.35;;
52306;SDS011;38249;48.920;12.882;2022-11-25T04:18:44;11.48;;;6.75;;
52306;SDS011;38249;48.920;12.882;2022-11-25T04:21:11;18.55;;;12.18;;
52306;SDS011;38249;48.920;12.882;2022-11-25T04:23:39;23.50;;;15.13;;
52306;SDS011;38249;48.920;12.882;2022-11-25T04:26:05;11.65;;;6.05;;
52306;SDS011;38249;48.920;12.882;2022-11-25T04:28:32;9.07;;;5.50;;
52306;SDS011;38249;48.920;12.882;2022-11-25T04:30:59;11.98;;;5.82;;
52306;SDS011;38249;48.920;12.882;2022-11-25T04:33:25;10.15;;;5.45;;
52306;SDS011;38249;48.920;12.882;2022-11-25T04:35:52;7.75;;;4.47;;
52306;SDS011;38249;48.920;12.882;2022-11-25T04:38:18;7.43;;;4.65;;
52306;SDS011;38249;48.920;12.882;2022-11-25T04:40:46;8.43;;;5.18;;
52306;SDS011;38249;48.920;12.882;2022-11-25T04:43:12;7.30;;;3.30;;
52306;SDS011;38249;48.920;12.882;2022-11-25T04:45:39;6.03;;;3.25;;
52306;SDS011;38249;48.920;12.882;2022-11-25T04:48:06;6.22;;;3.85;;
52306;SDS011;38249;48.920;12.882;2022-11-25T04:50:32;8.45;;;3.20;;
52306;SDS011;38249;48.920;12.882;2022-11-25T04:52:59;7.38;;;3.53;;
52306;SDS011;38249;48.920;12.882;2022-11-25T04:55:25;11.35;;;5.68;;
52306;SDS011;38249;48.920;12.882;2022-11-25T04:57:53;10.85;;;5.20;;
52306;SDS011;38249;48.920;12.882;2022-11-25T05:00:20;9.48;;;5.95;;
52306;SDS011;38249;48.920;12.882;2022-11-25T05:02:46;15.25;;;7.60;;
52306;SDS011;38249;48.920;12.882;2022-11-25T05:05:12;13.10;;;6.70;;
52306;SDS011;38249;48.920;12.882;2022-11-25T05:07:39;9.48;;;5.35;;
52306;SDS011;38249;48.920;12.882;2022-11-25T05:10:06;7.43;;;4.45;;
52306;SDS011;38249;48.920;12.882;2022-11-25T05:12:34;8.32;;;5.18;;
52306;SDS011;38249;48.920;12.882;2022-11-25T05:15:02;10.52;;;5.70;;
52306;SDS011;38249;48.920;12.882;2022-11-25T05:17:30;10.88;;;6.90;;
52306;SDS011;38249;48.920;12.882;2022-11-25T05:19:57;12.50;;;6.53;;
52306;SDS011;38249;48.920;12.882;2022-11-25T05:22:24;9.80;;;6.45;;
52306;SDS011;38249;48.920;12.882;2022-11-25T05:24:52;12.65;;;6.85;;
52306;SDS011;38249;48.920;12.882;2022-11-25T05:27:19;71.25;;;10.95;;
52306;SDS011;38249;48.920;12.882;2022-11-25T05:29:46;28.23;;;8.48;;
52306;SDS011;38249;48.920;12.882;2022-11-25T05:32:14;73.82;;;34.90;;
52306;SDS011;38249;48.920;12.882;2022-11-25T05:34:41;57.30;;;31.33;;
52306;SDS011;38249;48.920;12.882;2022-11-25T05:37:09;140.63;;;19.10;;
52306;SDS011;38249;48.920;12.882;2022-11-25T05:39:38;158.15;;;32.90;;
52306;SDS011;38249;48.920;12.882;2022-11-25T05:42:05;102.13;;;17.00;;
52306;SDS011;38249;48.920;12.882;2022-11-25T05:44:32;113.38;;;20.33;;
52306;SDS011;38249;48.920;12.882;2022-11-25T05:46:59;150.90;;;22.40;;
52306;SDS011;38249;48.920;12.882;2022-11-25T05:49:27;102.15;;;13.38;;
52306;SDS011;38249;48.920;12.882;2022-11-25T05:51:53;48.70;;;11.43;;
52306;SDS011;38249;48.920;12.882;2022-11-25T05:54:20;35.13;;;10.75;;
52306;SDS011;38249;48.920;12.882;2022-11-25T05:56:46;20.17;;;13.30;;
52306;SDS011;38249;48.920;12.882;2022-11-25T05:59:13;15.77;;;10.75;;
52306;SDS011;38249;48.920;12.882;2022-11-25T06:01:39;13.38;;;7.05;;
52306;SDS011;38249;48.920;12.882;2022-11-25T06:04:06;11.30;;;6.15;;
52306;SDS011;38249;48.920;12.882;2022-11-25T06:06:34;9.45;;;5.78;;
52306;SDS011;38249;48.920;12.882;2022-11-25T06:09:01;11.00;;;6.75;;
52306;SDS011;38249;48.920;12.882;2022-11-25T06:11:27;8.10;;;6.38;;
52306;SDS011;38249;48.920;12.882;2022-11-25T06:13:54;10.50;;;6.22;;
52306;SDS011;38249;48.920;12.882;2022-11-25T06:16:22;10.50;;;6.50;;
52306;SDS011;38249;48.920;12.882;2022-11-25T06:18:49;11.20;;;6.57;;
52306;SDS011;38249;48.920;12.882;2022-11-25T06:21:16;10.25;;;6.18;;
52306;SDS011;38249;48.920;12.882;2022-11-25T06:23:44;15.57;;;9.18;;
52306;SDS011;38249;48.920;12.882;2022-11-25T06:26:12;16.60;;;11.02;;
52306;SDS011;38249;48.920;12.882;2022-11-25T06:28:39;14.45;;;8.35;;
52306;SDS011;38249;48.920;12.882;2022-11-25T06:31:07;14.43;;;7.93;;
52306;SDS011;38249;48.920;12.882;2022-11-25T06:33:34;27.65;;;16.65;;
52306;SDS011;38249;48.920;12.882;2022-11-25T06:36:02;18.88;;;11.05;;
52306;SDS011;38249;48.920;12.882;2022-11-25T06:38:29;17.35;;;10.80;;
52306;SDS011;38249;48.920;12.882;2022-11-25T06:41:01;15.77;;;9.55;;
52306;SDS011;38249;48.920;12.882;2022-11-25T06:43:28;10.43;;;7.03;;
52306;SDS011;38249;48.920;12.882;2022-11-25T06:45:59;13.10;;;7.80;;
52306;SDS011;38249;48.920;12.882;2022-11-25T06:48:27;20.88;;;11.95;;
52306;SDS011;38249;48.920;12.882;2022-11-25T06:50:54;16.58;;;9.20;;
52306;SDS011;38249;48.920;12.882;2022-11-25T06:53:21;11.48;;;6.93;;
52306;SDS011;38249;48.920;12.882;2022-11-25T06:55:48;14.55;;;8.20;;
52306;SDS011;38249;48.920;12.882;2022-11-25T06:58:16;11.65;;;6.97;;
52306;SDS011;38249;48.920;12.882;2022-11-25T07:00:42;19.42;;;10.00;;
52306;SDS011;38249;48.920;12.882;2022-11-25T07:03:09;14.57;;;9.73;;
52306;SDS011;38249;48.920;12.882;2022-11-25T07:05:36;33.30;;;19.30;;
52306;SDS011;38249;48.920;12.882;2022-11-25T07:08:02;31.35;;;19.63;;
52306;SDS011;38249;48.920;12.882;2022-11-25T07:10:29;19.02;;;11.13;;
52306;SDS011;38249;48.920;12.882;2022-11-25T07:12:55;18.20;;;10.27;;
52306;SDS011;38249;48.920;12.882;2022-11-25T07:15:24;16.88;;;8.05;;
52306;SDS011;38249;48.920;12.882;2022-11-25T07:17:51;15.95;;;10.50;;
52306;SDS011;38249;48.920;12.882;2022-11-25T07:20:17;15.23;;;9.77;;
52306;SDS011;38249;48.920;12.882;2022-11-25T07:22:44;12.55;;;6.65;;
52306;SDS011;38249;48.920;12.882;2022-11-25T07:25:11;12.73;;;7.78;;
52306;SDS011;38249;48.920;12.882;2022-11-25T07:27:37;11.80;;;7.97;;
52306;SDS011;38249;48.920;12.882;2022-11-25T07:30:05;11.13;;;7.22;;
52306;SDS011;38249;48.920;12.882;2022-11-25T07:32:33;14.45;;;7.85;;
52306;SDS011;38249;48.920;12.882;2022-11-25T07:35:00;13.10;;;8.07;;
52306;SDS011;38249;48.920;12.882;2022-11-25T07:37:27;11.35;;;6.90;;
52306;SDS011;38249;48.920;12.882;2022-11-25T07:39:54;16.20;;;7.47;;
52306;SDS011;38249;48.920;12.882;2022-11-25T07:42:21;14.57;;;7.47;;
52306;SDS011;38249;48.920;12.882;2022-11-25T07:44:48;11.60;;;6.88;;
52306;SDS011;38249;48.920;12.882;2022-11-25T07:47:15;12.10;;;7.80;;
52306;SDS011;38249;48.920;12.882;2022-11-25T07:49:43;12.43;;;7.10;;
52306;SDS011;38249;48.920;12.882;2022-11-25T07:52:09;12.75;;;6.30;;
52306;SDS011;38249;48.920;12.882;2022-11-25T07:54:36;10.25;;;6.03;;
52306;SDS011;38249;48.920;12.882;2022-11-25T07:57:02;9.90;;;5.35;;
52306;SDS011;38249;48.920;12.882;2022-11-25T07:59:29;9.00;;;5.68;;
52306;SDS011;38249;48.920;12.882;2022-11-25T08:01:55;8.88;;;6.10;;
52306;SDS011;38249;48.920;12.882;2022-11-25T08:04:22;9.95;;;5.95;;
52306;SDS011;38249;48.920;12.882;2022-11-25T08:06:50;9.00;;;6.07;;
52306;SDS011;38249;48.920;12.882;2022-11-25T08:09:19;11.50;;;7.03;;
52306;SDS011;38249;48.920;12.882;2022-11-25T08:11:47;11.25;;;6.35;;
52306;SDS011;38249;48.920;12.882;2022-11-25T08:14:15;10.52;;;6.00;;
52306;SDS011;38249;48.920;12.882;2022-11-25T08:16:42;20.80;;;11.60;;
52306;SDS011;38249;48.920;12.882;2022-11-25T08:19:10;15.40;;;6.93;;
52306;SDS011;38249;48.920;12.882;2022-11-25T08:21:38;14.95;;;6.97;;
52306;SDS011;38249;48.920;12.882;2022-11-25T08:24:06;12.25;;;7.13;;
52306;SDS011;38249;48.920;12.882;2022-11-25T08:26:35;12.50;;;7.68;;
52306;SDS011;38249;48.920;12.882;2022-11-25T08:29:04;10.43;;;6.78;;
52306;SDS011;38249;48.920;12.882;2022-11-25T08:31:33;8.98;;;7.25;;
52306;SDS011;38249;48.920;12.882;2022-11-25T08:34:02;9.13;;;6.30;;
52306;SDS011;38249;48.920;12.882;2022-11-25T08:36:30;7.75;;;6.28;;
52306;SDS011;38249;48.920;12.882;2022-11-25T08:38:58;23.67;;;7.15;;
52306;SDS011;38249;48.920;12.882;2022-11-25T08:41:28;15.88;;;6.78;;
52306;SDS011;38249;48.920;12.882;2022-11-25T08:43:58;23.45;;;7.10;;
52306;SDS011;38249;48.920;12.882;2022-11-25T08:46:27;15.68;;;7.75;;
52306;SDS011;38249;48.920;12.882;2022-11-25T08:48:55;48.92;;;8.60;;
52306;SDS011;38249;48.920;12.882;2022-11-25T08:51:22;13.48;;;7.38;;
52306;SDS011;38249;48.920;12.882;2022-11-25T08:53:51;29.75;;;6.85;;
52306;SDS011;38249;48.920;12.882;2022-11-25T08:56:18;38.30;;;6.97;;
52306;SDS011;38249;48.920;12.882;2022-11-25T08:58:48;23.48;;;7.85;;
52306;SDS011;38249;48.920;12.882;2022-11-25T09:01:16;20.23;;;7.53;;
52306;SDS011;38249;48.920;12.882;2022-11-25T09:03:45;37.50;;;9.02;;
52306;SDS011;38249;48.920;12.882;2022-11-25T09:06:13;13.00;;;8.75;;
52306;SDS011;38249;48.920;12.882;2022-11-25T09:08:40;20.17;;;11.23;;
52306;SDS011;38249;48.920;12.882;2022-11-25T09:11:08;23.08;;;13.75;;
52306;SDS011;38249;48.920;12.882;2022-11-25T09:13:35;19.60;;;11.00;;
52306;SDS011;38249;48.920;12.882;2022-11-25T09:16:03;16.17;;;10.23;;
52306;SDS011;38249;48.920;12.882;2022-11-25T09:18:30;19.17;;;11.95;;
52306;SDS011;38249;48.920;12.882;2022-11-25T09:20:57;15.60;;;10.23;;
52306;SDS011;38249;48.920;12.882;2022-11-25T09:23:24;15.27;;;9.80;;
52306;SDS011;38249;48.920;12.882;2022-11-25T09:25:51;17.30;;;12.82;;
52306;SDS011;38249;48.920;12.882;2022-11-25T09:28:18;14.80;;;8.90;;
52306;SDS011;38249;48.920;12.882;2022-11-25T09:30:45;12.23;;;8.93;;
52306;SDS011;38249;48.920;12.882;2022-11-25T09:33:13;27.25;;;17.98;;
52306;SDS011;38249;48.920;12.882;2022-11-25T09:35:40;16.73;;;11.48;;
52306;SDS011;38249;48.920;12.882;2022-11-25T09:38:06;14.90;;;10.77;;
52306;SDS011;38249;48.920;12.882;2022-11-25T09:40:34;11.80;;;8.73;;
52306;SDS011;38249;48.920;12.882;2022-11-25T09:43:10;11.05;;;7.45;;
52306;SDS011;38249;48.920;12.882;2022-11-25T09:46:03;10.45;;;8.10;;
52306;SDS011;38249;48.920;12.882;2022-11-25T09:48:59;12.70;;;9.35;;
52306;SDS011;38249;48.920;12.882;2022-11-25T09:51:35;14.07;;;8.95;;
52306;SDS011;38249;48.920;12.882;2022-11-25T09:54:11;10.52;;;7.07;;
52306;SDS011;38249;48.920;12.882;2022-11-25T09:56:42;13.60;;;7.68;;
52306;SDS011;38249;48.920;12.882;2022-11-25T09:59:15;11.98;;;6.72;;
52306;SDS011;38249;48.920;12.882;2022-11-25T10:01:46;11.48;;;7.25;;
52306;SDS011;38249;48.920;12.882;2022-11-25T10:04:18;12.15;;;8.15;;
52306;SDS011;38249;48.920;12.882;2022-11-25T10:06:51;12.35;;;8.48;;
52306;SDS011;38249;48.920;12.882;2022-11-25T10:09:21;12.70;;;7.90;;
52306;SDS011;38249;48.920;12.882;2022-11-25T10:11:50;10.32;;;7.15;;
52306;SDS011;38249;48.920;12.882;2022-11-25T10:14:25;12.00;;;7.03;;
52306;SDS011;38249;48.920;12.882;2022-11-25T10:16:57;8.95;;;6.18;;
52306;SDS011;38249;48.920;12.882;2022-11-25T10:19:34;10.95;;;6.50;;
52306;SDS011;38249;48.920;12.882;2022-11-25T10:22:12;9.50;;;5.80;;
52306;SDS011;38249;48.920;12.882;2022-11-25T10:24:46;7.22;;;4.75;;
52306;SDS011;38249;48.920;12.882;2022-11-25T10:27:17;6.28;;;4.35;;
52306;SDS011;38249;48.920;12.882;2022-11-25T10:29:49;6.15;;;4.25;;
52306;SDS011;38249;48.920;12.882;2022-11-25T10:32:27;6.03;;;4.65;;
52306;SDS011;38249;48.920;12.882;2022-11-25T10:35:03;8.43;;;5.88;;
52306;SDS011;38249;48.920;12.882;2022-11-25T10:37:34;10.73;;;6.72;;
52306;SDS011;38249;48.920;12.882;2022-11-25T10:40:05;11.43;;;7.72;;
52306;SDS011;38249;48.920;12.882;2022-11-25T10:42:39;13.90;;;8.60;;
52306;SDS011;38249;48.920;12.882;2022-11-25T10:45:08;12.07;;;8.48;;
52306;SDS011;38249;48.920;12.882;2022-11-25T10:47:42;14.63;;;9.73;;
52306;SDS011;38249;48.920;12.882;2022-11-25T10:50:21;13.13;;;8.40;;
52306;SDS011;38249;48.920;12.882;2022-11-25T10:52:56;12.57;;;8.27;;
52306;SDS011;38249;48.920;12.882;2022-11-25T10:55:25;12.95;;;8.07;;
52306;SDS011;38249;48.920;12.882;2022-11-25T10:57:53;11.40;;;8.73;;
52306;SDS011;38249;48.920;12.882;2022-11-25T11:00:25;11.30;;;8.70;;
52306;SDS011;38249;48.920;12.882;2022-11-25T11:02:53;12.48;;;9.35;;
52306;SDS011;38249;48.920;12.882;2022-11-25T11:05:23;12.60;;;9.90;;
52306;SDS011;38249;48.920;12.882;2022-11-25T11:10:45;11.02;;;8.75;;
52306;SDS011;38249;48.920;12.882;2022-11-25T11:13:20;13.00;;;9.10;;
52306;SDS011;38249;48.920;12.882;2022-11-25T11:15:49;12.25;;;9.25;;
52306;SDS011;38249;48.920;12.882;2022-11-25T11:18:22;12.25;;;8.63;;
52306;SDS011;38249;48.920;12.882;2022-11-25T11:20:53;13.10;;;9.75;;
52306;SDS011;38249;48.920;12.882;2022-11-25T11:23:21;12.70;;;9.00;;
52306;SDS011;38249;48.920;12.882;2022-11-25T11:25:55;11.55;;;9.05;;
52306;SDS011;38249;48.920;12.882;2022-11-25T11:28:27;12.63;;;9.30;;
52306;SDS011;38249;48.920;12.882;2022-11-25T11:30:57;14.07;;;9.40;;
52306;SDS011;38249;48.920;12.882;2022-11-25T11:33:27;13.35;;;9.60;;
52306;SDS011;38249;48.920;12.882;2022-11-25T11:36:00;14.35;;;9.35;;
52306;SDS011;38249;48.920;12.882;2022-11-25T11:38:42;15.57;;;9.18;;
52306;SDS011;38249;48.920;12.882;2022-11-25T11:41:16;13.23;;;9.15;;
52306;SDS011;38249;48.920;12.882;2022-11-25T11:43:55;16.58;;;9.48;;
52306;SDS011;38249;48.920;12.882;2022-11-25T11:46:34;16.40;;;11.40;;
52306;SDS011;38249;48.920;12.882;2022-11-25T11:49:16;11.43;;;9.18;;
52306;SDS011;38249;48.920;12.882;2022-11-25T11:52:00;15.52;;;10.73;;
52306;SDS011;38249;48.920;12.882;2022-11-25T11:54:34;14.57;;;10.95;;
52306;SDS011;38249;48.920;12.882;2022-11-25T11:57:06;10.95;;;8.60;;
52306;SDS011;38249;48.920;12.882;2022-11-25T11:59:45;13.13;;;9.38;;
52306;SDS011;38249;48.920;12.882;2022-11-25T12:02:25;13.60;;;9.40;;
52306;SDS011;38249;48.920;12.882;2022-11-25T12:05:02;13.15;;;10.38;;
52306;SDS011;38249;48.920;12.882;2022-11-25T12:07:40;14.43;;;10.48;;
52306;SDS011;38249;48.920;12.882;2022-11-25T12:10:16;16.80;;;10.65;;
52306;SDS011;38249;48.920;12.882;2022-11-25T12:12:49;17.33;;;11.53;;
52306;SDS011;38249;48.920;12.882;2022-11-25T12:15:19;16.10;;;10.77;;
52306;SDS011;38249;48.920;12.882;2022-11-25T12:17:50;14.30;;;10.32;;
52306;SDS011;38249;48.920;12.882;2022-11-25T12:20:23;23.23;;;12.65;;
52306;SDS011;38249;48.920;12.882;2022-11-25T12:23:05;16.77;;;12.15;;
52306;SDS011;38249;48.920;12.882;2022-11-25T12:25:39;15.32;;;10.73;;
52306;SDS011;38249;48.920;12.882;2022-11-25T12:28:08;15.00;;;10.63;;
52306;SDS011;38249;48.920;12.882;2022-11-25T12:30:40;17.73;;;11.68;;
52306;SDS011;38249;48.920;12.882;2022-11-25T12:33:19;17.73;;;12.85;;
52306;SDS011;38249;48.920;12.882;2022-11-25T12:35:50;16.92;;;12.18;;
52306;SDS011;38249;48.920;12.882;2022-11-25T12:38:24;17.52;;;11.88;;
52306;SDS011;38249;48.920;12.882;2022-11-25T12:41:02;27.83;;;18.83;;
52306;SDS011;38249;48.920;12.882;2022-11-25T12:43:38;29.90;;;18.50;;
52306;SDS011;38249;48.920;12.882;2022-11-25T12:46:18;16.15;;;11.32;;
52306;SDS011;38249;48.920;12.882;2022-11-25T12:48:49;18.52;;;11.73;;
52306;SDS011;38249;48.920;12.882;2022-11-25T12:51:24;16.70;;;11.63;;
52306;SDS011;38249;48.920;12.882;2022-11-25T12:54:02;15.05;;;11.77;;
52306;SDS011;38249;48.920;12.882;2022-11-25T12:56:47;17.60;;;11.77;;
52306;SDS011;38249;48.920;12.882;2022-11-25T12:59:36;17.33;;;13.90;;
52306;SDS011;38249;48.920;12.882;2022-11-25T13:02:20;17.85;;;12.18;;
52306;SDS011;38249;48.920;12.882;2022-11-25T13:05:17;15.93;;;11.65;;
52306;SDS011;38249;48.920;12.882;2022-11-25T13:07:54;17.45;;;12.73;;
52306;SDS011;38249;48.920;12.882;2022-11-25T13:10:37;16.63;;;12.60;;
52306;SDS011;38249;48.920;12.882;2022-11-25T13:13:26;18.10;;;13.20;;
52306;SDS011;38249;48.920;12.882;2022-11-25T13:15:59;18.58;;;13.30;;
52306;SDS011;38249;48.920;12.882;2022-11-25T13:18:29;18.67;;;13.52;;
52306;SDS011;38249;48.920;12.882;2022-11-25T13:21:04;15.85;;;11.63;;
52306;SDS011;38249;48.920;12.882;2022-11-25T13:23:49;17.00;;;11.80;;
52306;SDS011;38249;48.920;12.882;2022-11-25T13:26:46;23.73;;;15.05;;
52306;SDS011;38249;48.920;12.882;2022-11-25T13:32:29;14.43;;;11.48;;
52306;SDS011;38249;48.920;12.882;2022-11-25T13:38:34;16.45;;;12.13;;
52306;SDS011;38249;48.920;12.882;2022-11-25T13:41:20;15.65;;;10.82;;
52306;SDS011;38249;48.920;12.882;2022-11-25T13:43:57;14.77;;;11.05;;
52306;SDS011;38249;48.920;12.882;2022-11-25T13:46:31;13.85;;;10.48;;
52306;SDS011;38249;48.920;12.882;2022-11-25T13:49:03;15.82;;;11.85;;
52306;SDS011;38249;48.920;12.882;2022-11-25T13:51:32;17.63;;;13.57;;
52306;SDS011;38249;48.920;12.882;2022-11-25T13:53:59;14.15;;;11.75;;
52306;SDS011;38249;48.920;12.882;2022-11-25T13:56:28;14.32;;;11.35;;
52306;SDS011;38249;48.920;12.882;2022-11-25T14:04:59;14.55;;;9.20;;
52306;SDS011;38249;48.920;12.882;2022-11-25T14:07:37;14.10;;;10.07;;
52306;SDS011;38249;48.920;12.882;2022-11-25T14:10:19;13.52;;;10.90;;
52306;SDS011;38249;48.920;12.882;2022-11-25T14:13:03;15.23;;;10.93;;
52306;SDS011;38249;48.920;12.882;2022-11-25T14:15:46;14.00;;;10.15;;
52306;SDS011;38249;48.920;12.882;2022-11-25T14:21:15;15.57;;;11.38;;
52306;SDS011;38249;48.920;12.882;2022-11-25T14:23:58;14.02;;;10.32;;
52306;SDS011;38249;48.920;12.882;2022-11-25T14:26:36;16.23;;;11.10;;
52306;SDS011;38249;48.920;12.882;2022-11-25T14:29:05;14.75;;;10.02;;
52306;SDS011;38249;48.920;12.882;2022-11-25T14:31:40;16.90;;;11.50;;
52306;SDS011;38249;48.920;12.882;2022-11-25T14:34:11;18.73;;;12.50;;
52306;SDS011;38249;48.920;12.882;2022-11-25T14:36:43;17.83;;;10.77;;
52306;SDS011;38249;48.920;12.882;2022-11-25T14:39:16;21.02;;;12.20;;
52306;SDS011;38249;48.920;12.882;2022-11-25T14:41:49;16.13;;;11.18;;
52306;SDS011;38249;48.920;12.882;2022-11-25T14:44:21;15.88;;;11.77;;
52306;SDS011;38249;48.920;12.882;2022-11-25T14:46:53;17.70;;;13.35;;
52306;SDS011;38249;48.920;12.882;2022-11-25T14:49:21;17.05;;;11.73;;
52306;SDS011;38249;48.920;12.882;2022-11-25T14:51:48;15.55;;;11.02;;
52306;SDS011;38249;48.920;12.882;2022-11-25T14:54:18;15.43;;;11.55;;
52306;SDS011;38249;48.920;12.882;2022-11-25T14:56:45;16.48;;;11.27;;
52306;SDS011;38249;48.920;12.882;2022-11-25T14:59:13;24.08;;;17.08;;